KRNT - Renton
Updated: Fri, 26-May-2017 5:53am PDT

 Wind from calm
Wind: Calm
Temperature: 52°F , 11°C
Dew Point: 48°F , 9°C
Humidity: 88%
Barometer: 29.94 inHg , 1013.9 hPa
Visibility: 10 miles , 16 km
2017/05/26 12:53 KRNT 261253Z AUTO 00000KT 10SM CLR 11/09 A2994 RMK AO2 SLP142 T01060094
KBFI - Seattle-Boeing
Updated: Fri, 26-May-2017 5:53am PDT

 Wind from calm
Wind: Calm
Temperature: 54°F , 12°C
Dew Point: 50°F , 10°C
Humidity: 88%
Barometer: 29.94 inHg , 1013.9 hPa
Visibility: 10 miles , 16 km
2017/05/26 12:53 KBFI 261253Z 00000KT 10SM CLR 12/10 A2994 RMK AO2 SLP138 T01170100
 
KSEA - Seattle
Updated: Fri, 26-May-2017 5:53am PDT

 Wind from calm
Wind: Calm
Temperature: 54°F , 12°C
Dew Point: 48°F , 9°C
Humidity: 82%
Barometer: 29.94 inHg , 1013.9 hPa
Visibility: 10 miles , 16 km
2017/05/26 12:53 KSEA 261253Z 00000KT 10SM CLR 12/09 A2994 RMK AO2 SLP144 T01170089
KSMP - Stampede Pass
Updated: Fri, 26-May-2017 5:56am PDT

 Wind from calm
Wind: Calm
Temperature: 48°F , 9°C
Dew Point: 43°F , 6°C
Humidity: 82%
Barometer: 29.97 inHg , 1014.9 hPa
Visibility: 10 miles , 16 km
2017/05/26 12:56 KSMP 261256Z AUTO 00000KT 10SM CLR 09/06 A2997 RMK AO2 SLP134 T00940061